sensor_id;sensor_type;location;lat;lon;timestamp;temperature;humidity
75961;SHT30;64644;48.914;2.254;2022-12-11T00:01:56;3.72;69.78
75961;SHT30;64644;48.914;2.254;2022-12-11T00:04:22;3.76;69.88
75961;SHT30;64644;48.914;2.254;2022-12-11T00:06:48;3.76;69.87
75961;SHT30;64644;48.914;2.254;2022-12-11T00:09:18;3.79;69.85
75961;SHT30;64644;48.914;2.254;2022-12-11T00:11:44;3.79;69.60
75961;SHT30;64644;48.914;2.254;2022-12-11T00:14:10;3.76;69.77
75961;SHT30;64644;48.914;2.254;2022-12-11T00:16:35;3.73;69.72
75961;SHT30;64644;48.914;2.254;2022-12-11T00:19:01;3.72;69.75
75961;SHT30;64644;48.914;2.254;2022-12-11T00:21:26;3.67;69.70
75961;SHT30;64644;48.914;2.254;2022-12-11T00:23:52;3.64;69.65
75961;SHT30;64644;48.914;2.254;2022-12-11T00:26:17;3.66;69.67
75961;SHT30;64644;48.914;2.254;2022-12-11T00:28:44;3.62;69.77
75961;SHT30;64644;48.914;2.254;2022-12-11T00:31:13;3.60;69.72
75961;SHT30;64644;48.914;2.254;2022-12-11T00:33:38;3.59;69.70
75961;SHT30;64644;48.914;2.254;2022-12-11T00:36:10;3.55;69.73
75961;SHT30;64644;48.914;2.254;2022-12-11T00:38:36;3.56;69.72
75961;SHT30;64644;48.914;2.254;2022-12-11T00:41:01;3.55;69.69
75961;SHT30;64644;48.914;2.254;2022-12-11T00:43:27;3.53;69.70
75961;SHT30;64644;48.914;2.254;2022-12-11T00:45:52;3.55;69.72
75961;SHT30;64644;48.914;2.254;2022-12-11T00:48:18;3.52;69.67
75961;SHT30;64644;48.914;2.254;2022-12-11T00:50:45;3.52;69.57
75961;SHT30;64644;48.914;2.254;2022-12-11T00:53:10;3.51;69.53
75961;SHT30;64644;48.914;2.254;2022-12-11T00:55:38;3.49;69.52
75961;SHT30;64644;48.914;2.254;2022-12-11T00:58:04;3.48;69.50
75961;SHT30;64644;48.914;2.254;2022-12-11T01:00:30;3.46;69.47
75961;SHT30;64644;48.914;2.254;2022-12-11T01:02:55;3.42;69.43
75961;SHT30;64644;48.914;2.254;2022-12-11T01:05:20;3.36;69.44
75961;SHT30;64644;48.914;2.254;2022-12-11T01:07:46;3.35;69.48
75961;SHT30;64644;48.914;2.254;2022-12-11T01:10:12;3.32;69.51
75961;SHT30;64644;48.914;2.254;2022-12-11T01:12:58;3.28;69.50
75961;SHT30;64644;48.914;2.254;2022-12-11T01:15:27;3.28;69.60
75961;SHT30;64644;48.914;2.254;2022-12-11T01:17:53;3.29;69.62
75961;SHT30;64644;48.914;2.254;2022-12-11T01:20:20;3.29;69.65
75961;SHT30;64644;48.914;2.254;2022-12-11T01:22:46;3.32;69.70
75961;SHT30;64644;48.914;2.254;2022-12-11T01:25:11;3.29;69.73
75961;SHT30;64644;48.914;2.254;2022-12-11T01:27:38;3.29;69.61
75961;SHT30;64644;48.914;2.254;2022-12-11T01:30:05;3.29;69.47
75961;SHT30;64644;48.914;2.254;2022-12-11T01:32:32;3.25;69.59
75961;SHT30;64644;48.914;2.254;2022-12-11T01:34:58;3.22;69.64
75961;SHT30;64644;48.914;2.254;2022-12-11T01:37:23;3.22;69.62
75961;SHT30;64644;48.914;2.254;2022-12-11T01:39:48;3.20;69.57
75961;SHT30;64644;48.914;2.254;2022-12-11T01:42:19;3.14;69.61
75961;SHT30;64644;48.914;2.254;2022-12-11T01:47:10;3.12;69.75
75961;SHT30;64644;48.914;2.254;2022-12-11T01:49:38;3.11;69.78
75961;SHT30;64644;48.914;2.254;2022-12-11T01:52:13;3.11;69.77
75961;SHT30;64644;48.914;2.254;2022-12-11T01:54:43;3.12;69.81
75961;SHT30;64644;48.914;2.254;2022-12-11T01:57:10;3.14;69.82
75961;SHT30;64644;48.914;2.254;2022-12-11T01:59:38;3.14;69.89
75961;SHT30;64644;48.914;2.254;2022-12-11T02:02:18;3.18;70.03
75961;SHT30;64644;48.914;2.254;2022-12-11T02:04:45;3.17;69.92
75961;SHT30;64644;48.914;2.254;2022-12-11T02:07:11;3.15;69.85
75961;SHT30;64644;48.914;2.254;2022-12-11T02:09:38;3.15;69.81
75961;SHT30;64644;48.914;2.254;2022-12-11T02:12:26;3.14;69.80
75961;SHT30;64644;48.914;2.254;2022-12-11T02:17:46;3.18;70.01
75961;SHT30;64644;48.914;2.254;2022-12-11T02:26:01;3.15;69.78
75961;SHT30;64644;48.914;2.254;2022-12-11T02:31:09;3.12;69.62
75961;SHT30;64644;48.914;2.254;2022-12-11T02:33:58;3.10;69.65
75961;SHT30;64644;48.914;2.254;2022-12-11T02:36:28;3.05;69.63
75961;SHT30;64644;48.914;2.254;2022-12-11T02:38:56;2.99;69.63
75961;SHT30;64644;48.914;2.254;2022-12-11T02:41:25;2.92;69.67
75961;SHT30;64644;48.914;2.254;2022-12-11T02:43:54;2.90;69.76
75961;SHT30;64644;48.914;2.254;2022-12-11T02:46:20;2.90;69.83
75961;SHT30;64644;48.914;2.254;2022-12-11T02:48:49;2.90;69.92
75961;SHT30;64644;48.914;2.254;2022-12-11T02:51:19;2.90;69.98
75961;SHT30;64644;48.914;2.254;2022-12-11T02:53:46;2.90;70.07
75961;SHT30;64644;48.914;2.254;2022-12-11T02:56:17;2.96;69.98
75961;SHT30;64644;48.914;2.254;2022-12-11T02:59:05;2.93;69.95
75961;SHT30;64644;48.914;2.254;2022-12-11T03:01:31;2.90;69.94
75961;SHT30;64644;48.914;2.254;2022-12-11T03:03:57;2.90;70.07
75961;SHT30;64644;48.914;2.254;2022-12-11T03:06:28;2.89;70.13
75961;SHT30;64644;48.914;2.254;2022-12-11T03:08:55;2.92;70.15
75961;SHT30;64644;48.914;2.254;2022-12-11T03:11:21;2.93;70.16
75961;SHT30;64644;48.914;2.254;2022-12-11T03:13:46;2.93;70.08
75961;SHT30;64644;48.914;2.254;2022-12-11T03:16:19;2.94;69.93
75961;SHT30;64644;48.914;2.254;2022-12-11T03:21:43;2.89;69.92
75961;SHT30;64644;48.914;2.254;2022-12-11T03:24:29;2.89;69.90
75961;SHT30;64644;48.914;2.254;2022-12-11T03:27:02;2.87;69.87
75961;SHT30;64644;48.914;2.254;2022-12-11T03:29:34;2.86;69.83
75961;SHT30;64644;48.914;2.254;2022-12-11T03:32:21;2.83;69.85
75961;SHT30;64644;48.914;2.254;2022-12-11T03:37:19;2.75;69.95
75961;SHT30;64644;48.914;2.254;2022-12-11T03:39:50;2.75;70.01
75961;SHT30;64644;48.914;2.254;2022-12-11T03:42:18;2.72;69.82
75961;SHT30;64644;48.914;2.254;2022-12-11T03:44:48;2.67;69.92
75961;SHT30;64644;48.914;2.254;2022-12-11T03:47:18;2.66;69.98
75961;SHT30;64644;48.914;2.254;2022-12-11T03:49:45;2.66;69.84
75961;SHT30;64644;48.914;2.254;2022-12-11T03:52:13;2.66;69.89
75961;SHT30;64644;48.914;2.254;2022-12-11T03:54:41;2.66;69.83
75961;SHT30;64644;48.914;2.254;2022-12-11T03:57:10;2.63;69.84
75961;SHT30;64644;48.914;2.254;2022-12-11T03:59:38;2.62;69.97
75961;SHT30;64644;48.914;2.254;2022-12-11T04:02:03;2.59;69.98
75961;SHT30;64644;48.914;2.254;2022-12-11T04:04:39;2.56;69.98
75961;SHT30;64644;48.914;2.254;2022-12-11T04:07:06;2.53;70.12
75961;SHT30;64644;48.914;2.254;2022-12-11T04:09:32;2.56;70.28
75961;SHT30;64644;48.914;2.254;2022-12-11T04:11:58;2.56;70.30
75961;SHT30;64644;48.914;2.254;2022-12-11T04:14:23;2.56;70.27
75961;SHT30;64644;48.914;2.254;2022-12-11T04:17:07;2.55;70.43
75961;SHT30;64644;48.914;2.254;2022-12-11T04:19:33;2.52;70.27
75961;SHT30;64644;48.914;2.254;2022-12-11T04:22:17;2.52;70.37
75961;SHT30;64644;48.914;2.254;2022-12-11T04:25:04;2.55;70.41
75961;SHT30;64644;48.914;2.254;2022-12-11T04:27:30;2.56;70.12
75961;SHT30;64644;48.914;2.254;2022-12-11T04:30:24;2.53;70.01
75961;SHT30;64644;48.914;2.254;2022-12-11T04:32:50;2.49;70.05
75961;SHT30;64644;48.914;2.254;2022-12-11T04:35:16;2.46;70.05
75961;SHT30;64644;48.914;2.254;2022-12-11T04:37:42;2.48;70.10
75961;SHT30;64644;48.914;2.254;2022-12-11T04:40:10;2.45;70.18
75961;SHT30;64644;48.914;2.254;2022-12-11T04:42:36;2.44;70.10
75961;SHT30;64644;48.914;2.254;2022-12-11T04:45:02;2.46;70.17
75961;SHT30;64644;48.914;2.254;2022-12-11T04:47:27;2.46;70.07
75961;SHT30;64644;48.914;2.254;2022-12-11T04:49:53;2.46;70.15
75961;SHT30;64644;48.914;2.254;2022-12-11T04:52:18;2.45;70.09
75961;SHT30;64644;48.914;2.254;2022-12-11T04:54:44;2.48;70.04
75961;SHT30;64644;48.914;2.254;2022-12-11T04:57:09;2.45;69.90
75961;SHT30;64644;48.914;2.254;2022-12-11T04:59:34;2.42;69.90
75961;SHT30;64644;48.914;2.254;2022-12-11T05:02:01;2.35;69.97
75961;SHT30;64644;48.914;2.254;2022-12-11T05:04:31;2.35;69.93
75961;SHT30;64644;48.914;2.254;2022-12-11T05:06:57;2.35;70.02
75961;SHT30;64644;48.914;2.254;2022-12-11T05:09:23;2.32;70.03
75961;SHT30;64644;48.914;2.254;2022-12-11T05:11:48;2.31;70.06
75961;SHT30;64644;48.914;2.254;2022-12-11T05:14:14;2.32;70.16
75961;SHT30;64644;48.914;2.254;2022-12-11T05:16:39;2.34;70.08
75961;SHT30;64644;48.914;2.254;2022-12-11T05:19:04;2.31;70.05
75961;SHT30;64644;48.914;2.254;2022-12-11T05:21:30;2.28;70.10
75961;SHT30;64644;48.914;2.254;2022-12-11T05:23:55;2.27;70.16
75961;SHT30;64644;48.914;2.254;2022-12-11T05:26:21;2.27;70.28
75961;SHT30;64644;48.914;2.254;2022-12-11T05:28:50;2.28;70.38
75961;SHT30;64644;48.914;2.254;2022-12-11T05:31:19;2.30;70.32
75961;SHT30;64644;48.914;2.254;2022-12-11T05:33:46;2.31;70.39
75961;SHT30;64644;48.914;2.254;2022-12-11T05:36:16;2.31;70.36
75961;SHT30;64644;48.914;2.254;2022-12-11T05:38:42;2.32;70.31
75961;SHT30;64644;48.914;2.254;2022-12-11T05:41:09;2.32;70.23
75961;SHT30;64644;48.914;2.254;2022-12-11T05:43:36;2.30;70.24
75961;SHT30;64644;48.914;2.254;2022-12-11T05:46:16;2.31;70.30
75961;SHT30;64644;48.914;2.254;2022-12-11T05:48:44;2.34;70.19
75961;SHT30;64644;48.914;2.254;2022-12-11T05:51:10;2.35;70.16
75961;SHT30;64644;48.914;2.254;2022-12-11T05:53:37;2.35;70.20
75961;SHT30;64644;48.914;2.254;2022-12-11T05:56:05;2.35;70.28
75961;SHT30;64644;48.914;2.254;2022-12-11T05:58:32;2.37;70.24
75961;SHT30;64644;48.914;2.254;2022-12-11T06:00:57;2.42;70.29
75961;SHT30;64644;48.914;2.254;2022-12-11T06:03:23;2.45;70.19
75961;SHT30;64644;48.914;2.254;2022-12-11T06:05:48;2.44;70.27
75961;SHT30;64644;48.914;2.254;2022-12-11T06:08:14;2.48;70.24
75961;SHT30;64644;48.914;2.254;2022-12-11T06:10:49;2.50;70.25
75961;SHT30;64644;48.914;2.254;2022-12-11T06:13:15;2.52;70.07
75961;SHT30;64644;48.914;2.254;2022-12-11T06:15:41;2.50;70.08
75961;SHT30;64644;48.914;2.254;2022-12-11T06:18:07;2.50;70.05
75961;SHT30;64644;48.914;2.254;2022-12-11T06:20:33;2.49;70.01
75961;SHT30;64644;48.914;2.254;2022-12-11T06:23:00;2.46;70.06
75961;SHT30;64644;48.914;2.254;2022-12-11T06:25:26;2.45;70.03
75961;SHT30;64644;48.914;2.254;2022-12-11T06:27:51;2.41;70.09
75961;SHT30;64644;48.914;2.254;2022-12-11T06:30:17;2.44;70.17
75961;SHT30;64644;48.914;2.254;2022-12-11T06:32:43;2.45;70.25
75961;SHT30;64644;48.914;2.254;2022-12-11T06:35:09;2.44;70.19
75961;SHT30;64644;48.914;2.254;2022-12-11T06:37:35;2.44;70.11
75961;SHT30;64644;48.914;2.254;2022-12-11T06:40:01;2.45;70.11
75961;SHT30;64644;48.914;2.254;2022-12-11T06:42:28;2.41;70.04
75961;SHT30;64644;48.914;2.254;2022-12-11T06:44:54;2.39;70.05
75961;SHT30;64644;48.914;2.254;2022-12-11T06:47:21;2.37;70.07
75961;SHT30;64644;48.914;2.254;2022-12-11T06:49:47;2.38;69.99
75961;SHT30;64644;48.914;2.254;2022-12-11T06:52:12;2.34;69.91
75961;SHT30;64644;48.914;2.254;2022-12-11T06:54:38;2.25;69.93
75961;SHT30;64644;48.914;2.254;2022-12-11T06:57:03;2.24;70.04
75961;SHT30;64644;48.914;2.254;2022-12-11T06:59:29;2.22;70.21
75961;SHT30;64644;48.914;2.254;2022-12-11T07:01:54;2.27;70.32
75961;SHT30;64644;48.914;2.254;2022-12-11T07:04:20;2.25;70.13
75961;SHT30;64644;48.914;2.254;2022-12-11T07:06:48;2.25;70.30
75961;SHT30;64644;48.914;2.254;2022-12-11T07:09:14;2.27;70.28
75961;SHT30;64644;48.914;2.254;2022-12-11T07:11:39;2.30;70.33
75961;SHT30;64644;48.914;2.254;2022-12-11T07:14:04;2.28;70.32
75961;SHT30;64644;48.914;2.254;2022-12-11T07:16:30;2.30;70.26
75961;SHT30;64644;48.914;2.254;2022-12-11T07:18:55;2.27;70.17
75961;SHT30;64644;48.914;2.254;2022-12-11T07:21:21;2.25;70.08
75961;SHT30;64644;48.914;2.254;2022-12-11T07:23:47;2.24;70.10
75961;SHT30;64644;48.914;2.254;2022-12-11T07:26:17;2.20;70.10
75961;SHT30;64644;48.914;2.254;2022-12-11T07:28:42;2.15;70.12
75961;SHT30;64644;48.914;2.254;2022-12-11T07:31:10;2.17;70.15
75961;SHT30;64644;48.914;2.254;2022-12-11T07:33:36;2.21;70.08
75961;SHT30;64644;48.914;2.254;2022-12-11T07:36:04;2.17;70.04
75961;SHT30;64644;48.914;2.254;2022-12-11T07:38:29;2.17;70.03
75961;SHT30;64644;48.914;2.254;2022-12-11T07:40:55;2.14;70.09
75961;SHT30;64644;48.914;2.254;2022-12-11T07:43:21;2.20;70.14
75961;SHT30;64644;48.914;2.254;2022-12-11T07:45:46;2.20;70.05
75961;SHT30;64644;48.914;2.254;2022-12-11T07:48:12;2.18;69.86
75961;SHT30;64644;48.914;2.254;2022-12-11T07:50:37;2.15;69.94
75961;SHT30;64644;48.914;2.254;2022-12-11T07:53:03;2.14;69.68
75961;SHT30;64644;48.914;2.254;2022-12-11T07:55:28;2.13;69.75
75961;SHT30;64644;48.914;2.254;2022-12-11T07:57:54;2.13;69.84
75961;SHT30;64644;48.914;2.254;2022-12-11T08:00:19;2.11;69.98
75961;SHT30;64644;48.914;2.254;2022-12-11T08:02:44;2.14;70.02
75961;SHT30;64644;48.914;2.254;2022-12-11T08:05:10;2.15;70.03
75961;SHT30;64644;48.914;2.254;2022-12-11T08:07:37;2.15;70.03
75961;SHT30;64644;48.914;2.254;2022-12-11T08:10:03;2.17;69.98
75961;SHT30;64644;48.914;2.254;2022-12-11T08:12:29;2.20;70.07
75961;SHT30;64644;48.914;2.254;2022-12-11T08:14:54;2.24;69.98
75961;SHT30;64644;48.914;2.254;2022-12-11T08:17:20;2.27;69.86
75961;SHT30;64644;48.914;2.254;2022-12-11T08:19:45;2.30;69.82
75961;SHT30;64644;48.914;2.254;2022-12-11T08:22:11;2.30;69.74
75961;SHT30;64644;48.914;2.254;2022-12-11T08:24:37;2.32;69.61
75961;SHT30;64644;48.914;2.254;2022-12-11T08:27:02;2.31;69.64
75961;SHT30;64644;48.914;2.254;2022-12-11T08:29:28;2.27;69.70
75961;SHT30;64644;48.914;2.254;2022-12-11T08:31:53;2.30;69.71
75961;SHT30;64644;48.914;2.254;2022-12-11T08:34:19;2.31;69.68
75961;SHT30;64644;48.914;2.254;2022-12-11T08:36:44;2.31;69.55
75961;SHT30;64644;48.914;2.254;2022-12-11T08:39:10;2.32;69.59
75961;SHT30;64644;48.914;2.254;2022-12-11T08:41:35;2.31;69.67
75961;SHT30;64644;48.914;2.254;2022-12-11T08:44:01;2.32;69.58
75961;SHT30;64644;48.914;2.254;2022-12-11T08:46:30;2.31;69.42
75961;SHT30;64644;48.914;2.254;2022-12-11T08:48:56;2.32;69.35
75961;SHT30;64644;48.914;2.254;2022-12-11T08:51:24;2.31;69.25
75961;SHT30;64644;48.914;2.254;2022-12-11T08:53:50;2.31;69.23
75961;SHT30;64644;48.914;2.254;2022-12-11T08:56:18;2.31;69.11
75961;SHT30;64644;48.914;2.254;2022-12-11T08:58:45;2.28;69.12
75961;SHT30;64644;48.914;2.254;2022-12-11T09:01:30;2.28;69.17
75961;SHT30;64644;48.914;2.254;2022-12-11T09:03:57;2.30;69.25
75961;SHT30;64644;48.914;2.254;2022-12-11T09:06:24;2.31;69.22
75961;SHT30;64644;48.914;2.254;2022-12-11T09:08:51;2.35;69.22
75961;SHT30;64644;48.914;2.254;2022-12-11T09:11:22;2.38;69.23
75961;SHT30;64644;48.914;2.254;2022-12-11T09:13:48;2.41;69.22
75961;SHT30;64644;48.914;2.254;2022-12-11T09:16:16;2.42;69.19
75961;SHT30;64644;48.914;2.254;2022-12-11T09:18:41;2.46;69.18
75961;SHT30;64644;48.914;2.254;2022-12-11T09:21:15;2.44;69.09
75961;SHT30;64644;48.914;2.254;2022-12-11T09:23:41;2.45;69.02
75961;SHT30;64644;48.914;2.254;2022-12-11T09:26:08;2.45;69.08
75961;SHT30;64644;48.914;2.254;2022-12-11T09:28:35;2.49;68.95
75961;SHT30;64644;48.914;2.254;2022-12-11T09:31:07;2.48;68.76
75961;SHT30;64644;48.914;2.254;2022-12-11T09:33:32;2.48;68.79
75961;SHT30;64644;48.914;2.254;2022-12-11T09:36:01;2.50;68.70
75961;SHT30;64644;48.914;2.254;2022-12-11T09:38:28;2.49;68.35
75961;SHT30;64644;48.914;2.254;2022-12-11T09:40:54;2.41;68.34
75961;SHT30;64644;48.914;2.254;2022-12-11T09:43:45;2.30;68.33
75961;SHT30;64644;48.914;2.254;2022-12-11T09:46:15;2.27;68.52
75961;SHT30;64644;48.914;2.254;2022-12-11T09:48:44;2.25;68.70
75961;SHT30;64644;48.914;2.254;2022-12-11T09:51:21;2.27;68.70
75961;SHT30;64644;48.914;2.254;2022-12-11T09:53:50;2.28;68.79
75961;SHT30;64644;48.914;2.254;2022-12-11T09:56:38;2.31;68.78
75961;SHT30;64644;48.914;2.254;2022-12-11T10:02:22;2.35;68.62
75961;SHT30;64644;48.914;2.254;2022-12-11T10:05:11;2.32;68.72
75961;SHT30;64644;48.914;2.254;2022-12-11T10:11:04;2.41;68.75
75961;SHT30;64644;48.914;2.254;2022-12-11T10:16:04;2.50;68.59
75961;SHT30;64644;48.914;2.254;2022-12-11T10:18:34;2.53;68.51
75961;SHT30;64644;48.914;2.254;2022-12-11T10:21:01;2.58;68.44
75961;SHT30;64644;48.914;2.254;2022-12-11T10:23:35;2.62;68.50
75961;SHT30;64644;48.914;2.254;2022-12-11T10:26:16;2.66;68.57
75961;SHT30;64644;48.914;2.254;2022-12-11T10:28:42;2.69;68.44
75961;SHT30;64644;48.914;2.254;2022-12-11T10:31:48;2.75;68.51
75961;SHT30;64644;48.914;2.254;2022-12-11T10:34:39;2.82;68.49
75961;SHT30;64644;48.914;2.254;2022-12-11T10:37:06;2.90;68.41
75961;SHT30;64644;48.914;2.254;2022-12-11T10:39:31;2.96;68.35
75961;SHT30;64644;48.914;2.254;2022-12-11T10:41:57;3.03;68.10
75961;SHT30;64644;48.914;2.254;2022-12-11T10:47:12;3.04;67.61
75961;SHT30;64644;48.914;2.254;2022-12-11T10:49:42;3.08;67.66
75961;SHT30;64644;48.914;2.254;2022-12-11T10:52:18;3.07;67.51
75961;SHT30;64644;48.914;2.254;2022-12-11T10:54:45;3.08;67.31
75961;SHT30;64644;48.914;2.254;2022-12-11T10:57:13;3.14;67.37
75961;SHT30;64644;48.914;2.254;2022-12-11T11:04:56;3.17;67.38
75961;SHT30;64644;48.914;2.254;2022-12-11T11:09:49;3.18;66.80
75961;SHT30;64644;48.914;2.254;2022-12-11T11:12:26;3.22;66.93
75961;SHT30;64644;48.914;2.254;2022-12-11T11:17:24;3.24;66.60
75961;SHT30;64644;48.914;2.254;2022-12-11T11:19:50;3.32;66.68
75961;SHT30;64644;48.914;2.254;2022-12-11T11:22:17;3.43;66.47
75961;SHT30;64644;48.914;2.254;2022-12-11T11:27:28;3.59;65.68
75961;SHT30;64644;48.914;2.254;2022-12-11T11:29:58;3.60;65.54
75961;SHT30;64644;48.914;2.254;2022-12-11T11:32:40;3.56;65.31
75961;SHT30;64644;48.914;2.254;2022-12-11T11:35:26;3.63;65.68
75961;SHT30;64644;48.914;2.254;2022-12-11T11:38:02;3.64;65.50
75961;SHT30;64644;48.914;2.254;2022-12-11T11:40:30;3.66;65.59
75961;SHT30;64644;48.914;2.254;2022-12-11T11:43:09;3.74;65.11
75961;SHT30;64644;48.914;2.254;2022-12-11T11:48:23;3.81;65.07
75961;SHT30;64644;48.914;2.254;2022-12-11T11:50:52;3.83;65.21
75961;SHT30;64644;48.914;2.254;2022-12-11T11:53:31;3.86;65.14
75961;SHT30;64644;48.914;2.254;2022-12-11T11:56:20;3.90;64.83
75961;SHT30;64644;48.914;2.254;2022-12-11T12:01:29;3.95;64.50
75961;SHT30;64644;48.914;2.254;2022-12-11T12:03:55;3.98;64.67
75961;SHT30;64644;48.914;2.254;2022-12-11T12:12:32;4.01;64.46
75961;SHT30;64644;48.914;2.254;2022-12-11T12:15:54;4.04;64.44
75961;SHT30;64644;48.914;2.254;2022-12-11T12:18:46;4.04;63.95
75961;SHT30;64644;48.914;2.254;2022-12-11T12:26:19;3.94;63.92
75961;SHT30;64644;48.914;2.254;2022-12-11T12:40:18;4.02;63.94
75961;SHT30;64644;48.914;2.254;2022-12-11T12:47:41;4.21;63.22
75961;SHT30;64644;48.914;2.254;2022-12-11T12:50:15;4.19;63.69
75961;SHT30;64644;48.914;2.254;2022-12-11T12:52:41;4.26;63.74
75961;SHT30;64644;48.914;2.254;2022-12-11T12:57:48;4.32;63.84
75961;SHT30;64644;48.914;2.254;2022-12-11T13:02:51;4.32;63.87
75961;SHT30;64644;48.914;2.254;2022-12-11T13:05:24;4.32;63.61
75961;SHT30;64644;48.914;2.254;2022-12-11T13:07:53;4.32;63.48
75961;SHT30;64644;48.914;2.254;2022-12-11T13:10:35;4.35;63.60
75961;SHT30;64644;48.914;2.254;2022-12-11T13:13:02;4.34;63.51
75961;SHT30;64644;48.914;2.254;2022-12-11T13:15:40;4.36;63.63
75961;SHT30;64644;48.914;2.254;2022-12-11T13:18:34;4.39;63.42
75961;SHT30;64644;48.914;2.254;2022-12-11T13:21:01;4.39;63.70
75961;SHT30;64644;48.914;2.254;2022-12-11T13:23:30;4.41;63.53
75961;SHT30;64644;48.914;2.254;2022-12-11T13:26:01;4.43;63.41
75961;SHT30;64644;48.914;2.254;2022-12-11T13:33:42;4.43;63.45
75961;SHT30;64644;48.914;2.254;2022-12-11T13:38:36;4.41;63.22
75961;SHT30;64644;48.914;2.254;2022-12-11T13:41:09;4.39;63.13
75961;SHT30;64644;48.914;2.254;2022-12-11T13:43:36;4.41;63.04
75961;SHT30;64644;48.914;2.254;2022-12-11T13:46:05;4.41;63.27
75961;SHT30;64644;48.914;2.254;2022-12-11T13:48:38;4.43;63.17
75961;SHT30;64644;48.914;2.254;2022-12-11T13:51:05;4.43;63.48
75961;SHT30;64644;48.914;2.254;2022-12-11T13:53:31;4.46;63.20
75961;SHT30;64644;48.914;2.254;2022-12-11T13:55:58;4.46;63.33
75961;SHT30;64644;48.914;2.254;2022-12-11T13:58:25;4.45;62.92
75961;SHT30;64644;48.914;2.254;2022-12-11T14:00:55;4.45;63.04
75961;SHT30;64644;48.914;2.254;2022-12-11T14:03:21;4.46;63.23
75961;SHT30;64644;48.914;2.254;2022-12-11T14:05:48;4.41;62.90
75961;SHT30;64644;48.914;2.254;2022-12-11T14:08:20;4.43;63.03
75961;SHT30;64644;48.914;2.254;2022-12-11T14:10:51;4.46;63.18
75961;SHT30;64644;48.914;2.254;2022-12-11T14:13:23;4.45;62.99
75961;SHT30;64644;48.914;2.254;2022-12-11T14:15:49;4.43;63.17
75961;SHT30;64644;48.914;2.254;2022-12-11T14:18:20;4.45;62.93
75961;SHT30;64644;48.914;2.254;2022-12-11T14:20:56;4.45;62.95
75961;SHT30;64644;48.914;2.254;2022-12-11T14:23:28;4.46;62.92
75961;SHT30;64644;48.914;2.254;2022-12-11T14:28:21;4.45;62.94
75961;SHT30;64644;48.914;2.254;2022-12-11T14:30:53;4.42;62.84
75961;SHT30;64644;48.914;2.254;2022-12-11T14:33:21;4.45;62.75
75961;SHT30;64644;48.914;2.254;2022-12-11T14:35:50;4.46;62.67
75961;SHT30;64644;48.914;2.254;2022-12-11T14:38:24;4.43;62.98
75961;SHT30;64644;48.914;2.254;2022-12-11T14:40:58;4.45;62.75
75961;SHT30;64644;48.914;2.254;2022-12-11T14:43:35;4.43;62.74
75961;SHT30;64644;48.914;2.254;2022-12-11T14:46:10;4.46;62.67
75961;SHT30;64644;48.914;2.254;2022-12-11T14:48:54;4.45;62.80
75961;SHT30;64644;48.914;2.254;2022-12-11T14:51:22;4.43;62.71
75961;SHT30;64644;48.914;2.254;2022-12-11T14:53:49;4.49;62.72
75961;SHT30;64644;48.914;2.254;2022-12-11T14:56:24;4.46;62.67
75961;SHT30;64644;48.914;2.254;2022-12-11T14:58:55;4.46;62.63
75961;SHT30;64644;48.914;2.254;2022-12-11T15:01:27;4.50;62.65
75961;SHT30;64644;48.914;2.254;2022-12-11T15:04:22;4.46;62.55
75961;SHT30;64644;48.914;2.254;2022-12-11T15:06:51;4.49;62.47
75961;SHT30;64644;48.914;2.254;2022-12-11T15:09:20;4.48;62.66
75961;SHT30;64644;48.914;2.254;2022-12-11T15:11:47;4.48;62.63
75961;SHT30;64644;48.914;2.254;2022-12-11T15:14:15;4.50;62.67
75961;SHT30;64644;48.914;2.254;2022-12-11T15:16:42;4.52;62.53
75961;SHT30;64644;48.914;2.254;2022-12-11T15:19:17;4.53;62.73
75961;SHT30;64644;48.914;2.254;2022-12-11T15:21:44;4.53;62.49
75961;SHT30;64644;48.914;2.254;2022-12-11T15:24:22;4.53;62.75
75961;SHT30;64644;48.914;2.254;2022-12-11T15:26:48;4.54;62.87
75961;SHT30;64644;48.914;2.254;2022-12-11T15:29:36;4.52;62.90
75961;SHT30;64644;48.914;2.254;2022-12-11T15:37:31;4.56;62.92
75961;SHT30;64644;48.914;2.254;2022-12-11T15:39:58;4.59;63.04
75961;SHT30;64644;48.914;2.254;2022-12-11T15:44:58;4.56;62.81
75961;SHT30;64644;48.914;2.254;2022-12-11T15:47:29;4.54;62.87
75961;SHT30;64644;48.914;2.254;2022-12-11T15:50:23;4.50;62.82
75961;SHT30;64644;48.914;2.254;2022-12-11T15:52:50;4.50;62.68
75961;SHT30;64644;48.914;2.254;2022-12-11T15:55:17;4.52;62.72
75961;SHT30;64644;48.914;2.254;2022-12-11T15:57:51;4.52;62.92
75961;SHT30;64644;48.914;2.254;2022-12-11T16:00:18;4.52;62.95
75961;SHT30;64644;48.914;2.254;2022-12-11T16:02:44;4.53;62.94
75961;SHT30;64644;48.914;2.254;2022-12-11T16:05:10;4.49;62.95
75961;SHT30;64644;48.914;2.254;2022-12-11T16:07:36;4.46;62.89
75961;SHT30;64644;48.914;2.254;2022-12-11T16:10:01;4.48;62.85
75961;SHT30;64644;48.914;2.254;2022-12-11T16:12:27;4.48;62.87
75961;SHT30;64644;48.914;2.254;2022-12-11T16:14:52;4.48;62.93
75961;SHT30;64644;48.914;2.254;2022-12-11T16:17:18;4.48;62.78
75961;SHT30;64644;48.914;2.254;2022-12-11T16:19:43;4.48;62.85
75961;SHT30;64644;48.914;2.254;2022-12-11T16:22:11;4.46;62.91
75961;SHT30;64644;48.914;2.254;2022-12-11T16:24:36;4.46;62.95
75961;SHT30;64644;48.914;2.254;2022-12-11T16:27:04;4.45;62.84
75961;SHT30;64644;48.914;2.254;2022-12-11T16:29:34;4.48;62.74
75961;SHT30;64644;48.914;2.254;2022-12-11T16:31:59;4.42;62.71
75961;SHT30;64644;48.914;2.254;2022-12-11T16:34:25;4.39;62.91
75961;SHT30;64644;48.914;2.254;2022-12-11T16:36:51;4.32;62.68
75961;SHT30;64644;48.914;2.254;2022-12-11T16:39:16;4.35;62.91
75961;SHT30;64644;48.914;2.254;2022-12-11T16:41:41;4.29;62.88
75961;SHT30;64644;48.914;2.254;2022-12-11T16:44:07;4.31;62.91
75961;SHT30;64644;48.914;2.254;2022-12-11T16:46:32;4.31;63.00
75961;SHT30;64644;48.914;2.254;2022-12-11T16:48:58;4.29;63.09
75961;SHT30;64644;48.914;2.254;2022-12-11T16:51:23;4.26;63.38
75961;SHT30;64644;48.914;2.254;2022-12-11T16:53:49;4.29;63.40
75961;SHT30;64644;48.914;2.254;2022-12-11T16:56:14;4.28;63.57
75961;SHT30;64644;48.914;2.254;2022-12-11T16:58:39;4.31;63.60
75961;SHT30;64644;48.914;2.254;2022-12-11T17:01:13;4.28;63.73
75961;SHT30;64644;48.914;2.254;2022-12-11T17:03:39;4.25;63.76
75961;SHT30;64644;48.914;2.254;2022-12-11T17:06:07;4.26;63.89
75961;SHT30;64644;48.914;2.254;2022-12-11T17:08:32;4.22;63.89
75961;SHT30;64644;48.914;2.254;2022-12-11T17:10:58;4.22;63.90
75961;SHT30;64644;48.914;2.254;2022-12-11T17:13:23;4.22;63.95
75961;SHT30;64644;48.914;2.254;2022-12-11T17:15:49;4.14;63.96
75961;SHT30;64644;48.914;2.254;2022-12-11T17:18:14;4.11;63.98
75961;SHT30;64644;48.914;2.254;2022-12-11T17:20:43;4.09;64.02
75961;SHT30;64644;48.914;2.254;2022-12-11T17:23:10;4.08;64.02
75961;SHT30;64644;48.914;2.254;2022-12-11T17:25:40;4.05;64.03
75961;SHT30;64644;48.914;2.254;2022-12-11T17:28:05;4.01;64.23
75961;SHT30;64644;48.914;2.254;2022-12-11T17:30:31;4.01;64.32
75961;SHT30;64644;48.914;2.254;2022-12-11T17:32:57;4.00;64.27
75961;SHT30;64644;48.914;2.254;2022-12-11T17:35:22;3.93;64.28
75961;SHT30;64644;48.914;2.254;2022-12-11T17:37:47;3.89;64.34